sensor_id;sensor_type;location;lat;lon;timestamp;temperature;humidity
21425;DHT22;10873;51.132;16.848;2023-08-20T00:01:42;28.40;72.30
21425;DHT22;10873;51.132;16.848;2023-08-20T00:04:10;28.40;72.30
21425;DHT22;10873;51.132;16.848;2023-08-20T00:06:37;28.40;72.30
21425;DHT22;10873;51.132;16.848;2023-08-20T00:09:03;28.40;72.30
21425;DHT22;10873;51.132;16.848;2023-08-20T00:11:32;28.30;72.10
21425;DHT22;10873;51.132;16.848;2023-08-20T00:13:59;28.30;72.20
21425;DHT22;10873;51.132;16.848;2023-08-20T00:16:26;28.30;72.20
21425;DHT22;10873;51.132;16.848;2023-08-20T00:18:53;28.30;72.20
21425;DHT22;10873;51.132;16.848;2023-08-20T00:21:19;28.30;72.20
21425;DHT22;10873;51.132;16.848;2023-08-20T00:23:46;28.30;72.20
21425;DHT22;10873;51.132;16.848;2023-08-20T00:26:12;28.30;72.10
21425;DHT22;10873;51.132;16.848;2023-08-20T00:28:38;28.30;72.10
21425;DHT22;10873;51.132;16.848;2023-08-20T00:31:06;28.40;72.20
21425;DHT22;10873;51.132;16.848;2023-08-20T00:33:32;28.30;72.10
21425;DHT22;10873;51.132;16.848;2023-08-20T00:35:58;28.30;72.10
21425;DHT22;10873;51.132;16.848;2023-08-20T00:38:24;28.30;72.10
21425;DHT22;10873;51.132;16.848;2023-08-20T00:40:50;28.40;72.10
21425;DHT22;10873;51.132;16.848;2023-08-20T00:43:16;28.40;72.10
21425;DHT22;10873;51.132;16.848;2023-08-20T00:45:42;28.40;72.10
21425;DHT22;10873;51.132;16.848;2023-08-20T00:48:10;28.40;72.10
21425;DHT22;10873;51.132;16.848;2023-08-20T00:50:37;28.40;72.10
21425;DHT22;10873;51.132;16.848;2023-08-20T00:53:05;28.40;72.00
21425;DHT22;10873;51.132;16.848;2023-08-20T00:55:31;28.40;72.00
21425;DHT22;10873;51.132;16.848;2023-08-20T00:57:57;28.40;72.00
21425;DHT22;10873;51.132;16.848;2023-08-20T01:00:24;28.40;72.00
21425;DHT22;10873;51.132;16.848;2023-08-20T01:02:50;28.40;71.90
21425;DHT22;10873;51.132;16.848;2023-08-20T01:05:19;28.40;71.90
21425;DHT22;10873;51.132;16.848;2023-08-20T01:08:13;28.40;71.90
21425;DHT22;10873;51.132;16.848;2023-08-20T01:10:51;28.40;72.00
21425;DHT22;10873;51.132;16.848;2023-08-20T01:13:19;28.40;72.00
21425;DHT22;10873;51.132;16.848;2023-08-20T01:15:45;28.40;71.90
21425;DHT22;10873;51.132;16.848;2023-08-20T01:18:11;28.40;71.90
21425;DHT22;10873;51.132;16.848;2023-08-20T01:20:41;28.40;71.90
21425;DHT22;10873;51.132;16.848;2023-08-20T01:26:21;28.40;72.00
21425;DHT22;10873;51.132;16.848;2023-08-20T01:28:51;28.40;72.00
21425;DHT22;10873;51.132;16.848;2023-08-20T01:31:18;28.40;72.00
21425;DHT22;10873;51.132;16.848;2023-08-20T01:33:45;28.40;72.00
21425;DHT22;10873;51.132;16.848;2023-08-20T01:36:11;28.40;72.00
21425;DHT22;10873;51.132;16.848;2023-08-20T01:38:37;28.40;72.00
21425;DHT22;10873;51.132;16.848;2023-08-20T01:41:04;28.40;72.00
21425;DHT22;10873;51.132;16.848;2023-08-20T01:43:29;28.40;72.00
21425;DHT22;10873;51.132;16.848;2023-08-20T01:45:58;28.40;72.00
21425;DHT22;10873;51.132;16.848;2023-08-20T01:48:24;28.30;71.90
21425;DHT22;10873;51.132;16.848;2023-08-20T01:50:50;28.30;72.00
21425;DHT22;10873;51.132;16.848;2023-08-20T01:53:16;28.30;72.00
21425;DHT22;10873;51.132;16.848;2023-08-20T01:55:42;28.30;72.00
21425;DHT22;10873;51.132;16.848;2023-08-20T01:58:08;28.40;72.10
21425;DHT22;10873;51.132;16.848;2023-08-20T02:00:34;28.30;72.00
21425;DHT22;10873;51.132;16.848;2023-08-20T02:03:01;28.40;72.10
21425;DHT22;10873;51.132;16.848;2023-08-20T02:05:28;28.30;72.00
21425;DHT22;10873;51.132;16.848;2023-08-20T02:07:54;28.30;72.00
21425;DHT22;10873;51.132;16.848;2023-08-20T02:10:20;28.30;72.00
21425;DHT22;10873;51.132;16.848;2023-08-20T02:12:46;28.30;72.00
21425;DHT22;10873;51.132;16.848;2023-08-20T02:15:13;28.30;72.00
21425;DHT22;10873;51.132;16.848;2023-08-20T02:17:39;28.30;72.00
21425;DHT22;10873;51.132;16.848;2023-08-20T02:20:07;28.30;72.00
21425;DHT22;10873;51.132;16.848;2023-08-20T02:22:35;28.30;72.00
21425;DHT22;10873;51.132;16.848;2023-08-20T02:25:02;28.30;72.00
21425;DHT22;10873;51.132;16.848;2023-08-20T02:27:28;28.30;72.00
21425;DHT22;10873;51.132;16.848;2023-08-20T02:29:54;28.30;72.00
21425;DHT22;10873;51.132;16.848;2023-08-20T02:32:20;28.30;72.10
21425;DHT22;10873;51.132;16.848;2023-08-20T02:34:49;28.30;72.10
21425;DHT22;10873;51.132;16.848;2023-08-20T02:37:16;28.30;72.10
21425;DHT22;10873;51.132;16.848;2023-08-20T02:39:42;28.30;72.00
21425;DHT22;10873;51.132;16.848;2023-08-20T02:42:08;28.30;72.00
21425;DHT22;10873;51.132;16.848;2023-08-20T02:44:34;28.30;72.00
21425;DHT22;10873;51.132;16.848;2023-08-20T02:47:00;28.30;72.00
21425;DHT22;10873;51.132;16.848;2023-08-20T02:49:26;28.30;72.00
21425;DHT22;10873;51.132;16.848;2023-08-20T02:51:52;28.30;72.00
21425;DHT22;10873;51.132;16.848;2023-08-20T02:54:20;28.30;71.90
21425;DHT22;10873;51.132;16.848;2023-08-20T02:56:45;28.30;72.00
21425;DHT22;10873;51.132;16.848;2023-08-20T02:59:12;28.30;72.00
21425;DHT22;10873;51.132;16.848;2023-08-20T03:01:37;28.30;71.90
21425;DHT22;10873;51.132;16.848;2023-08-20T03:04:04;28.20;71.80
21425;DHT22;10873;51.132;16.848;2023-08-20T03:06:30;28.20;71.80
21425;DHT22;10873;51.132;16.848;2023-08-20T03:08:56;28.30;71.90
21425;DHT22;10873;51.132;16.848;2023-08-20T03:11:24;28.30;71.90
21425;DHT22;10873;51.132;16.848;2023-08-20T03:13:50;28.30;71.90
21425;DHT22;10873;51.132;16.848;2023-08-20T03:16:16;28.30;71.90
21425;DHT22;10873;51.132;16.848;2023-08-20T03:18:42;28.20;71.70
21425;DHT22;10873;51.132;16.848;2023-08-20T03:21:08;28.30;71.80
21425;DHT22;10873;51.132;16.848;2023-08-20T03:23:34;28.30;71.80
21425;DHT22;10873;51.132;16.848;2023-08-20T03:26:00;28.20;71.70
21425;DHT22;10873;51.132;16.848;2023-08-20T03:28:27;28.20;71.70
21425;DHT22;10873;51.132;16.848;2023-08-20T03:30:53;28.30;71.80
21425;DHT22;10873;51.132;16.848;2023-08-20T03:33:19;28.30;71.80
21425;DHT22;10873;51.132;16.848;2023-08-20T03:35:45;28.30;71.70
21425;DHT22;10873;51.132;16.848;2023-08-20T03:38:11;28.20;71.60
21425;DHT22;10873;51.132;16.848;2023-08-20T03:40:37;28.30;71.70
21425;DHT22;10873;51.132;16.848;2023-08-20T03:43:04;28.20;71.60
21425;DHT22;10873;51.132;16.848;2023-08-20T03:45:31;28.20;71.60
21425;DHT22;10873;51.132;16.848;2023-08-20T03:47:57;28.20;71.60
21425;DHT22;10873;51.132;16.848;2023-08-20T03:50:23;28.30;71.70
21425;DHT22;10873;51.132;16.848;2023-08-20T03:52:49;28.20;71.60
21425;DHT22;10873;51.132;16.848;2023-08-20T03:55:15;28.20;71.60
21425;DHT22;10873;51.132;16.848;2023-08-20T03:57:42;28.20;71.60
21425;DHT22;10873;51.132;16.848;2023-08-20T04:00:09;28.20;71.60
21425;DHT22;10873;51.132;16.848;2023-08-20T04:02:37;28.20;71.60
21425;DHT22;10873;51.132;16.848;2023-08-20T04:05:03;28.20;71.60
21425;DHT22;10873;51.132;16.848;2023-08-20T04:07:30;28.20;71.60
21425;DHT22;10873;51.132;16.848;2023-08-20T04:09:56;28.20;71.60
21425;DHT22;10873;51.132;16.848;2023-08-20T04:12:22;28.20;71.60
21425;DHT22;10873;51.132;16.848;2023-08-20T04:14:49;28.20;71.60
21425;DHT22;10873;51.132;16.848;2023-08-20T04:17:15;28.20;71.60
21425;DHT22;10873;51.132;16.848;2023-08-20T04:19:42;28.20;71.60
21425;DHT22;10873;51.132;16.848;2023-08-20T04:22:08;28.20;71.60
21425;DHT22;10873;51.132;16.848;2023-08-20T04:24:34;28.20;71.60
21425;DHT22;10873;51.132;16.848;2023-08-20T04:27:00;28.20;71.60
21425;DHT22;10873;51.132;16.848;2023-08-20T04:29:26;28.20;71.60
21425;DHT22;10873;51.132;16.848;2023-08-20T04:31:53;28.20;71.60
21425;DHT22;10873;51.132;16.848;2023-08-20T04:34:19;28.20;71.60
21425;DHT22;10873;51.132;16.848;2023-08-20T04:36:46;28.20;71.60
21425;DHT22;10873;51.132;16.848;2023-08-20T04:39:12;28.20;71.60
21425;DHT22;10873;51.132;16.848;2023-08-20T04:41:38;28.20;71.60
21425;DHT22;10873;51.132;16.848;2023-08-20T04:44:05;28.20;71.60
21425;DHT22;10873;51.132;16.848;2023-08-20T04:46:31;28.20;71.60
21425;DHT22;10873;51.132;16.848;2023-08-20T04:48:57;28.20;71.60
21425;DHT22;10873;51.132;16.848;2023-08-20T04:51:23;28.20;71.60
21425;DHT22;10873;51.132;16.848;2023-08-20T04:53:50;28.20;71.60
21425;DHT22;10873;51.132;16.848;2023-08-20T04:56:16;28.20;71.60
21425;DHT22;10873;51.132;16.848;2023-08-20T04:58:42;28.20;71.60
21425;DHT22;10873;51.132;16.848;2023-08-20T05:01:08;28.20;71.60
21425;DHT22;10873;51.132;16.848;2023-08-20T05:03:34;28.20;71.60
21425;DHT22;10873;51.132;16.848;2023-08-20T05:06:01;28.20;71.60
21425;DHT22;10873;51.132;16.848;2023-08-20T05:08:27;28.20;71.60
21425;DHT22;10873;51.132;16.848;2023-08-20T05:10:55;28.20;71.60
21425;DHT22;10873;51.132;16.848;2023-08-20T05:13:21;28.20;71.60
21425;DHT22;10873;51.132;16.848;2023-08-20T05:15:47;28.20;71.60
21425;DHT22;10873;51.132;16.848;2023-08-20T05:18:13;28.20;71.70
21425;DHT22;10873;51.132;16.848;2023-08-20T05:20:40;28.20;71.70
21425;DHT22;10873;51.132;16.848;2023-08-20T05:23:06;28.20;71.80
21425;DHT22;10873;51.132;16.848;2023-08-20T05:25:32;28.20;72.00
21425;DHT22;10873;51.132;16.848;2023-08-20T05:27:59;28.20;72.20
21425;DHT22;10873;51.132;16.848;2023-08-20T05:30:27;28.20;72.20
21425;DHT22;10873;51.132;16.848;2023-08-20T05:32:53;28.20;72.30
21425;DHT22;10873;51.132;16.848;2023-08-20T05:35:19;28.20;72.40
21425;DHT22;10873;51.132;16.848;2023-08-20T05:37:45;28.20;72.50
21425;DHT22;10873;51.132;16.848;2023-08-20T05:40:11;28.20;72.70
21425;DHT22;10873;51.132;16.848;2023-08-20T05:42:37;28.20;72.80
21425;DHT22;10873;51.132;16.848;2023-08-20T05:45:05;28.20;72.90
21425;DHT22;10873;51.132;16.848;2023-08-20T05:47:31;28.20;73.00
21425;DHT22;10873;51.132;16.848;2023-08-20T05:49:57;28.20;73.20
21425;DHT22;10873;51.132;16.848;2023-08-20T05:52:23;28.20;73.30
21425;DHT22;10873;51.132;16.848;2023-08-20T05:54:49;28.20;73.50
21425;DHT22;10873;51.132;16.848;2023-08-20T05:57:15;28.20;73.50
21425;DHT22;10873;51.132;16.848;2023-08-20T05:59:41;28.30;73.80
21425;DHT22;10873;51.132;16.848;2023-08-20T06:02:08;28.30;73.90
21425;DHT22;10873;51.132;16.848;2023-08-20T06:04:35;28.30;74.00
21425;DHT22;10873;51.132;16.848;2023-08-20T06:07:01;28.30;74.00
21425;DHT22;10873;51.132;16.848;2023-08-20T06:09:27;28.40;74.30
21425;DHT22;10873;51.132;16.848;2023-08-20T06:11:53;28.40;74.90
21425;DHT22;10873;51.132;16.848;2023-08-20T06:14:19;28.40;75.10
21425;DHT22;10873;51.132;16.848;2023-08-20T06:16:45;28.50;75.20
21425;DHT22;10873;51.132;16.848;2023-08-20T06:19:12;28.50;75.00
21425;DHT22;10873;51.132;16.848;2023-08-20T06:21:38;28.60;75.70
21425;DHT22;10873;51.132;16.848;2023-08-20T06:24:05;28.60;74.90
21425;DHT22;10873;51.132;16.848;2023-08-20T06:26:31;28.60;75.50
21425;DHT22;10873;51.132;16.848;2023-08-20T06:28:57;28.70;74.70
21425;DHT22;10873;51.132;16.848;2023-08-20T06:31:24;28.70;74.60
21425;DHT22;10873;51.132;16.848;2023-08-20T06:33:50;28.70;74.40
21425;DHT22;10873;51.132;16.848;2023-08-20T06:36:17;28.70;74.40
21425;DHT22;10873;51.132;16.848;2023-08-20T06:38:43;28.80;74.30
21425;DHT22;10873;51.132;16.848;2023-08-20T06:41:09;28.80;74.20
21425;DHT22;10873;51.132;16.848;2023-08-20T06:43:35;28.80;74.10
21425;DHT22;10873;51.132;16.848;2023-08-20T06:46:02;28.80;74.00
21425;DHT22;10873;51.132;16.848;2023-08-20T06:48:28;28.90;74.00
21425;DHT22;10873;51.132;16.848;2023-08-20T06:50:54;28.90;74.00
21425;DHT22;10873;51.132;16.848;2023-08-20T06:53:21;28.90;73.90
21425;DHT22;10873;51.132;16.848;2023-08-20T06:55:47;28.90;73.90
21425;DHT22;10873;51.132;16.848;2023-08-20T06:58:13;28.90;73.80
21425;DHT22;10873;51.132;16.848;2023-08-20T07:00:39;28.90;73.80
21425;DHT22;10873;51.132;16.848;2023-08-20T07:03:05;28.90;73.80
21425;DHT22;10873;51.132;16.848;2023-08-20T07:05:31;29.00;73.80
21425;DHT22;10873;51.132;16.848;2023-08-20T07:07:57;29.00;73.70
21425;DHT22;10873;51.132;16.848;2023-08-20T07:10:25;29.00;73.50
21425;DHT22;10873;51.132;16.848;2023-08-20T07:12:51;29.00;73.50
21425;DHT22;10873;51.132;16.848;2023-08-20T07:15:17;29.00;73.50
21425;DHT22;10873;51.132;16.848;2023-08-20T07:17:43;29.00;73.50
21425;DHT22;10873;51.132;16.848;2023-08-20T07:20:09;29.00;73.50
21425;DHT22;10873;51.132;16.848;2023-08-20T07:22:35;29.00;73.50
21425;DHT22;10873;51.132;16.848;2023-08-20T07:25:02;29.00;73.60
21425;DHT22;10873;51.132;16.848;2023-08-20T07:27:29;29.10;73.60
21425;DHT22;10873;51.132;16.848;2023-08-20T07:29:56;29.10;73.60
21425;DHT22;10873;51.132;16.848;2023-08-20T07:32:22;29.10;73.60
21425;DHT22;10873;51.132;16.848;2023-08-20T07:34:48;29.10;73.60
21425;DHT22;10873;51.132;16.848;2023-08-20T07:37:14;29.10;74.50
21425;DHT22;10873;51.132;16.848;2023-08-20T07:39:40;29.10;73.60
21425;DHT22;10873;51.132;16.848;2023-08-20T07:42:06;29.10;73.70
21425;DHT22;10873;51.132;16.848;2023-08-20T07:44:33;29.10;73.70
21425;DHT22;10873;51.132;16.848;2023-08-20T07:46:59;29.20;73.80
21425;DHT22;10873;51.132;16.848;2023-08-20T07:49:26;29.20;73.80
21425;DHT22;10873;51.132;16.848;2023-08-20T07:51:52;29.20;73.80
21425;DHT22;10873;51.132;16.848;2023-08-20T07:54:20;29.20;73.80
21425;DHT22;10873;51.132;16.848;2023-08-20T07:56:46;29.20;73.70
21425;DHT22;10873;51.132;16.848;2023-08-20T07:59:12;29.20;73.60
21425;DHT22;10873;51.132;16.848;2023-08-20T08:01:39;29.30;73.60
21425;DHT22;10873;51.132;16.848;2023-08-20T08:04:05;29.30;73.50
21425;DHT22;10873;51.132;16.848;2023-08-20T08:06:31;29.30;73.50
21425;DHT22;10873;51.132;16.848;2023-08-20T08:09:17;29.30;73.40
21425;DHT22;10873;51.132;16.848;2023-08-20T08:11:44;29.30;73.30
21425;DHT22;10873;51.132;16.848;2023-08-20T08:14:10;29.30;73.20
21425;DHT22;10873;51.132;16.848;2023-08-20T08:16:39;29.30;73.10
21425;DHT22;10873;51.132;16.848;2023-08-20T08:19:05;29.30;73.00
21425;DHT22;10873;51.132;16.848;2023-08-20T08:21:31;29.40;73.00
21425;DHT22;10873;51.132;16.848;2023-08-20T08:23:57;29.40;73.00
21425;DHT22;10873;51.132;16.848;2023-08-20T08:26:23;29.40;72.90
21425;DHT22;10873;51.132;16.848;2023-08-20T08:28:49;29.40;73.00
21425;DHT22;10873;51.132;16.848;2023-08-20T08:31:15;29.40;73.00
21425;DHT22;10873;51.132;16.848;2023-08-20T08:33:43;29.40;73.10
21425;DHT22;10873;51.132;16.848;2023-08-20T08:36:08;29.40;73.10
21425;DHT22;10873;51.132;16.848;2023-08-20T08:38:35;29.40;73.20
21425;DHT22;10873;51.132;16.848;2023-08-20T08:41:02;29.40;73.20
21425;DHT22;10873;51.132;16.848;2023-08-20T08:43:30;29.40;73.30
21425;DHT22;10873;51.132;16.848;2023-08-20T08:45:57;29.40;73.30
21425;DHT22;10873;51.132;16.848;2023-08-20T08:48:25;29.40;73.30
21425;DHT22;10873;51.132;16.848;2023-08-20T08:50:52;29.40;73.30
21425;DHT22;10873;51.132;16.848;2023-08-20T08:53:19;29.40;73.40
21425;DHT22;10873;51.132;16.848;2023-08-20T08:55:45;29.40;73.40
21425;DHT22;10873;51.132;16.848;2023-08-20T08:58:11;29.40;73.50
21425;DHT22;10873;51.132;16.848;2023-08-20T09:00:37;29.40;73.50
21425;DHT22;10873;51.132;16.848;2023-08-20T09:03:04;29.40;73.50
21425;DHT22;10873;51.132;16.848;2023-08-20T09:05:30;29.40;73.50
21425;DHT22;10873;51.132;16.848;2023-08-20T09:07:57;29.40;73.50
21425;DHT22;10873;51.132;16.848;2023-08-20T09:10:26;29.40;73.50
21425;DHT22;10873;51.132;16.848;2023-08-20T09:12:54;29.40;73.50
21425;DHT22;10873;51.132;16.848;2023-08-20T09:15:21;29.40;73.50
21425;DHT22;10873;51.132;16.848;2023-08-20T09:17:47;29.40;73.50
21425;DHT22;10873;51.132;16.848;2023-08-20T09:20:13;29.40;73.50
21425;DHT22;10873;51.132;16.848;2023-08-20T09:22:39;29.40;73.50
21425;DHT22;10873;51.132;16.848;2023-08-20T09:25:07;29.40;73.50
21425;DHT22;10873;51.132;16.848;2023-08-20T09:27:41;29.40;73.50
21425;DHT22;10873;51.132;16.848;2023-08-20T09:30:07;29.40;73.50
21425;DHT22;10873;51.132;16.848;2023-08-20T09:32:34;29.40;73.40
21425;DHT22;10873;51.132;16.848;2023-08-20T09:35:00;29.40;73.40
21425;DHT22;10873;51.132;16.848;2023-08-20T09:37:26;29.40;73.40
21425;DHT22;10873;51.132;16.848;2023-08-20T09:39:52;29.40;73.30
21425;DHT22;10873;51.132;16.848;2023-08-20T09:42:20;29.40;73.30
21425;DHT22;10873;51.132;16.848;2023-08-20T09:44:46;29.40;73.30
21425;DHT22;10873;51.132;16.848;2023-08-20T09:47:14;29.40;73.30
21425;DHT22;10873;51.132;16.848;2023-08-20T09:49:41;29.40;73.30
21425;DHT22;10873;51.132;16.848;2023-08-20T09:52:09;29.40;73.30
21425;DHT22;10873;51.132;16.848;2023-08-20T09:54:45;29.40;73.30
21425;DHT22;10873;51.132;16.848;2023-08-20T09:57:23;29.40;73.30
21425;DHT22;10873;51.132;16.848;2023-08-20T09:59:50;29.40;73.30
21425;DHT22;10873;51.132;16.848;2023-08-20T10:02:17;29.40;73.30
21425;DHT22;10873;51.132;16.848;2023-08-20T10:04:44;29.40;73.20
21425;DHT22;10873;51.132;16.848;2023-08-20T10:07:11;29.40;73.20
21425;DHT22;10873;51.132;16.848;2023-08-20T10:09:38;29.40;73.20
21425;DHT22;10873;51.132;16.848;2023-08-20T10:12:05;29.40;73.10
21425;DHT22;10873;51.132;16.848;2023-08-20T10:14:33;29.50;73.20
21425;DHT22;10873;51.132;16.848;2023-08-20T10:17:06;29.50;73.20
21425;DHT22;10873;51.132;16.848;2023-08-20T10:19:33;29.50;73.10
21425;DHT22;10873;51.132;16.848;2023-08-20T10:21:59;29.50;73.10
21425;DHT22;10873;51.132;16.848;2023-08-20T10:24:27;29.50;73.10
21425;DHT22;10873;51.132;16.848;2023-08-20T10:27:07;29.50;73.10
21425;DHT22;10873;51.132;16.848;2023-08-20T10:29:36;29.50;73.10
21425;DHT22;10873;51.132;16.848;2023-08-20T10:32:05;29.50;73.00
21425;DHT22;10873;51.132;16.848;2023-08-20T10:34:36;29.50;73.00
21425;DHT22;10873;51.132;16.848;2023-08-20T10:37:09;29.50;73.00
21425;DHT22;10873;51.132;16.848;2023-08-20T10:39:35;29.50;72.90
21425;DHT22;10873;51.132;16.848;2023-08-20T10:42:22;29.50;72.90
21425;DHT22;10873;51.132;16.848;2023-08-20T10:45:01;29.50;72.80
21425;DHT22;10873;51.132;16.848;2023-08-20T10:47:37;29.50;72.70
21425;DHT22;10873;51.132;16.848;2023-08-20T10:50:03;29.60;72.80
21425;DHT22;10873;51.132;16.848;2023-08-20T10:52:29;29.50;72.50
21425;DHT22;10873;51.132;16.848;2023-08-20T10:54:56;29.60;72.50
21425;DHT22;10873;51.132;16.848;2023-08-20T10:57:22;29.60;72.30
21425;DHT22;10873;51.132;16.848;2023-08-20T10:59:59;29.60;71.90
21425;DHT22;10873;51.132;16.848;2023-08-20T11:02:31;29.60;71.30
21425;DHT22;10873;51.132;16.848;2023-08-20T11:04:57;29.60;71.30
21425;DHT22;10873;51.132;16.848;2023-08-20T11:07:24;29.60;71.00
21425;DHT22;10873;51.132;16.848;2023-08-20T11:09:51;29.60;70.50
21425;DHT22;10873;51.132;16.848;2023-08-20T11:12:20;29.70;70.30
21425;DHT22;10873;51.132;16.848;2023-08-20T11:14:46;29.70;70.30
21425;DHT22;10873;51.132;16.848;2023-08-20T11:17:14;29.70;70.20
21425;DHT22;10873;51.132;16.848;2023-08-20T11:19:40;29.70;69.80
21425;DHT22;10873;51.132;16.848;2023-08-20T11:22:06;29.70;69.80
21425;DHT22;10873;51.132;16.848;2023-08-20T11:24:32;29.70;69.70
21425;DHT22;10873;51.132;16.848;2023-08-20T11:26:58;29.80;69.50
21425;DHT22;10873;51.132;16.848;2023-08-20T11:29:26;29.80;70.30
21425;DHT22;10873;51.132;16.848;2023-08-20T11:31:52;29.80;69.20
21425;DHT22;10873;51.132;16.848;2023-08-20T11:34:19;29.80;68.90
21425;DHT22;10873;51.132;16.848;2023-08-20T11:36:46;29.80;68.70
21425;DHT22;10873;51.132;16.848;2023-08-20T11:39:12;29.80;68.60
21425;DHT22;10873;51.132;16.848;2023-08-20T11:41:39;29.80;68.30
21425;DHT22;10873;51.132;16.848;2023-08-20T11:44:07;29.80;67.90
21425;DHT22;10873;51.132;16.848;2023-08-20T11:46:42;29.80;67.50
21425;DHT22;10873;51.132;16.848;2023-08-20T11:49:10;29.80;67.10
21425;DHT22;10873;51.132;16.848;2023-08-20T11:51:39;29.80;66.90
21425;DHT22;10873;51.132;16.848;2023-08-20T11:54:05;29.90;66.60
21425;DHT22;10873;51.132;16.848;2023-08-20T11:56:33;29.90;66.20
21425;DHT22;10873;51.132;16.848;2023-08-20T11:58:59;29.90;66.40
21425;DHT22;10873;51.132;16.848;2023-08-20T12:01:30;29.90;66.60
21425;DHT22;10873;51.132;16.848;2023-08-20T12:04:00;29.90;66.80
21425;DHT22;10873;51.132;16.848;2023-08-20T12:06:26;30.00;67.10
21425;DHT22;10873;51.132;16.848;2023-08-20T12:08:57;30.00;67.00
21425;DHT22;10873;51.132;16.848;2023-08-20T12:11:24;30.00;66.60
21425;DHT22;10873;51.132;16.848;2023-08-20T12:13:51;30.00;66.30
21425;DHT22;10873;51.132;16.848;2023-08-20T12:16:17;30.00;66.00
21425;DHT22;10873;51.132;16.848;2023-08-20T12:18:45;30.00;65.80
21425;DHT22;10873;51.132;16.848;2023-08-20T12:21:11;30.00;65.50
21425;DHT22;10873;51.132;16.848;2023-08-20T12:23:37;30.00;65.40
21425;DHT22;10873;51.132;16.848;2023-08-20T12:26:05;30.00;65.10
21425;DHT22;10873;51.132;16.848;2023-08-20T12:28:31;30.10;64.90
21425;DHT22;10873;51.132;16.848;2023-08-20T12:30:57;30.00;64.70
21425;DHT22;10873;51.132;16.848;2023-08-20T12:33:23;30.10;64.60
21425;DHT22;10873;51.132;16.848;2023-08-20T12:35:49;30.10;64.40
21425;DHT22;10873;51.132;16.848;2023-08-20T12:38:15;30.10;64.10
21425;DHT22;10873;51.132;16.848;2023-08-20T12:40:42;30.10;63.80
21425;DHT22;10873;51.132;16.848;2023-08-20T12:43:09;30.10;63.60
21425;DHT22;10873;51.132;16.848;2023-08-20T12:45:35;30.00;63.30
21425;DHT22;10873;51.132;16.848;2023-08-20T12:48:02;30.10;63.10
21425;DHT22;10873;51.132;16.848;2023-08-20T12:50:29;30.10;63.00
21425;DHT22;10873;51.132;16.848;2023-08-20T12:52:55;30.10;62.90
21425;DHT22;10873;51.132;16.848;2023-08-20T12:55:21;30.10;62.70
21425;DHT22;10873;51.132;16.848;2023-08-20T12:57:55;30.10;62.50
21425;DHT22;10873;51.132;16.848;2023-08-20T13:00:23;30.10;62.20
21425;DHT22;10873;51.132;16.848;2023-08-20T13:02:53;30.10;61.90
21425;DHT22;10873;51.132;16.848;2023-08-20T13:05:22;30.10;61.60
21425;DHT22;10873;51.132;16.848;2023-08-20T13:07:48;30.10;61.50
21425;DHT22;10873;51.132;16.848;2023-08-20T13:10:15;30.10;61.20
21425;DHT22;10873;51.132;16.848;2023-08-20T13:12:47;30.10;61.10
21425;DHT22;10873;51.132;16.848;2023-08-20T13:15:15;30.10;60.90
21425;DHT22;10873;51.132;16.848;2023-08-20T13:17:45;30.10;60.80
21425;DHT22;10873;51.132;16.848;2023-08-20T13:20:11;30.00;60.70
21425;DHT22;10873;51.132;16.848;2023-08-20T13:22:37;30.10;60.60
21425;DHT22;10873;51.132;16.848;2023-08-20T13:25:04;30.10;60.40
21425;DHT22;10873;51.132;16.848;2023-08-20T13:27:30;30.10;60.30
21425;DHT22;10873;51.132;16.848;2023-08-20T13:29:57;30.10;60.10
21425;DHT22;10873;51.132;16.848;2023-08-20T13:32:23;30.10;59.90
21425;DHT22;10873;51.132;16.848;2023-08-20T13:34:51;30.10;59.90
21425;DHT22;10873;51.132;16.848;2023-08-20T13:37:17;30.10;60.40
21425;DHT22;10873;51.132;16.848;2023-08-20T13:39:44;30.10;59.50
21425;DHT22;10873;51.132;16.848;2023-08-20T13:42:10;30.00;59.50
21425;DHT22;10873;51.132;16.848;2023-08-20T13:44:36;30.10;59.20
21425;DHT22;10873;51.132;16.848;2023-08-20T13:47:02;30.00;58.60
21425;DHT22;10873;51.132;16.848;2023-08-20T13:49:28;30.00;58.20
21425;DHT22;10873;51.132;16.848;2023-08-20T13:51:56;30.00;57.70
21425;DHT22;10873;51.132;16.848;2023-08-20T13:54:22;30.00;57.40
21425;DHT22;10873;51.132;16.848;2023-08-20T13:56:48;30.00;57.10
21425;DHT22;10873;51.132;16.848;2023-08-20T13:59:14;30.00;56.80
21425;DHT22;10873;51.132;16.848;2023-08-20T14:01:40;30.00;56.70
21425;DHT22;10873;51.132;16.848;2023-08-20T14:04:06;30.00;56.90
21425;DHT22;10873;51.132;16.848;2023-08-20T14:06:32;30.00;57.10
21425;DHT22;10873;51.132;16.848;2023-08-20T14:09:00;30.00;57.50
21425;DHT22;10873;51.132;16.848;2023-08-20T14:11:26;30.00;57.90
21425;DHT22;10873;51.132;16.848;2023-08-20T14:13:53;30.00;58.20
21425;DHT22;10873;51.132;16.848;2023-08-20T14:16:18;30.00;58.70
21425;DHT22;10873;51.132;16.848;2023-08-20T14:18:45;30.00;59.10
21425;DHT22;10873;51.132;16.848;2023-08-20T14:21:11;30.00;59.50
21425;DHT22;10873;51.132;16.848;2023-08-20T14:23:37;30.00;59.90
21425;DHT22;10873;51.132;16.848;2023-08-20T14:26:06;30.00;60.20
21425;DHT22;10873;51.132;16.848;2023-08-20T14:28:33;30.00;60.60
21425;DHT22;10873;51.132;16.848;2023-08-20T14:31:02;29.90;60.90
21425;DHT22;10873;51.132;16.848;2023-08-20T14:33:29;29.90;61.20
21425;DHT22;10873;51.132;16.848;2023-08-20T14:35:55;29.90;61.60
21425;DHT22;10873;51.132;16.848;2023-08-20T14:38:21;29.90;61.80
21425;DHT22;10873;51.132;16.848;2023-08-20T14:40:47;29.90;62.00
21425;DHT22;10873;51.132;16.848;2023-08-20T14:43:15;29.90;62.10
21425;DHT22;10873;51.132;16.848;2023-08-20T14:45:41;29.90;62.20
21425;DHT22;10873;51.132;16.848;2023-08-20T14:48:08;29.90;62.30
21425;DHT22;10873;51.132;16.848;2023-08-20T14:50:34;29.90;62.40
21425;DHT22;10873;51.132;16.848;2023-08-20T14:53:00;29.90;62.50
21425;DHT22;10873;51.132;16.848;2023-08-20T14:55:27;29.90;62.50
21425;DHT22;10873;51.132;16.848;2023-08-20T14:57:54;29.90;62.50
21425;DHT22;10873;51.132;16.848;2023-08-20T15:00:21;29.90;62.50
21425;DHT22;10873;51.132;16.848;2023-08-20T15:02:48;29.90;62.50
21425;DHT22;10873;51.132;16.848;2023-08-20T15:05:15;29.90;62.40
21425;DHT22;10873;51.132;16.848;2023-08-20T15:07:41;29.90;62.40
21425;DHT22;10873;51.132;16.848;2023-08-20T15:10:08;29.90;62.40
21425;DHT22;10873;51.132;16.848;2023-08-20T15:12:35;29.90;62.40
21425;DHT22;10873;51.132;16.848;2023-08-20T15:15:01;29.90;62.40
21425;DHT22;10873;51.132;16.848;2023-08-20T15:17:30;29.90;62.40